Time;durP1;ratioP1;P1;durP2;ratioP2;P2;SDS_P1;SDS_P2;PMS_P1;PMS_P2;Temp;Humidity;BMP_temperature;BMP_pressure;BME280_temperature;BME280_humidity;BME280_pressure;Samples;Min_cycle;Max_cycle;Signal;HPM_P1;HPM_P2
2023/07/20 00:01:33;;;;;;;;;;;;;;;21.45;100.00;99200.00;5075192;28;878;-57
2023/07/20 00:03:59;;;;;;;;;;;;;;;21.37;100.00;99193.97;5074826;28;870;-58
2023/07/20 00:06:27;;;;;;;;;;;;;;;21.31;100.00;99193.91;5074883;28;823;-57
2023/07/20 00:08:54;;;;;;;;;;;;;;;21.25;100.00;99193.06;5074697;28;1905;-57
2023/07/20 00:11:22;;;;;;;;;;;;;;;21.21;100.00;99184.09;5074826;28;795;-58
2023/07/20 00:13:49;;;;;;;;;;;;;;;21.14;100.00;99193.69;5074679;28;857;-57
2023/07/20 00:16:16;;;;;;;;;;;;;;;21.04;100.00;99191.47;5074770;28;814;-58
2023/07/20 00:18:43;;;;;;;;;;;;;;;20.95;100.00;99195.19;5074692;28;810;-58
2023/07/20 00:21:09;;;;;;;;;;;;;;;20.88;100.00;99198.41;5074629;28;881;-57
2023/07/20 00:23:36;;;;;;;;;;;;;;;20.80;100.00;99190.41;5074509;28;881;-57
2023/07/20 00:26:03;;;;;;;;;;;;;;;20.75;100.00;99193.13;5074486;28;1150;-58
2023/07/20 00:28:29;;;;;;;;;;;;;;;20.69;100.00;99197.88;5056322;28;2207;-57
2023/07/20 00:30:56;;;;;;;;;;;;;;;20.62;100.00;99187.06;5074461;28;830;-58
2023/07/20 00:33:22;;;;;;;;;;;;;;;20.57;100.00;99194.91;5074381;28;982;-58
2023/07/20 00:35:48;;;;;;;;;;;;;;;20.55;100.00;99199.44;5074257;28;921;-58
2023/07/20 00:38:15;;;;;;;;;;;;;;;20.53;100.00;99194.31;5074406;28;834;-58
2023/07/20 00:40:42;;;;;;;;;;;;;;;20.51;100.00;99185.59;5074171;28;868;-58
2023/07/20 00:43:09;;;;;;;;;;;;;;;20.54;100.00;99193.03;5073981;28;830;-57
2023/07/20 00:45:36;;;;;;;;;;;;;;;20.56;100.00;99189.75;5074416;28;926;-58
2023/07/20 00:48:04;;;;;;;;;;;;;;;20.57;100.00;99189.28;5073878;28;1886;-57
2023/07/20 00:50:34;;;;;;;;;;;;;;;20.62;100.00;99185.03;5074123;28;833;-58
2023/07/20 00:53:04;;;;;;;;;;;;;;;20.64;100.00;99181.72;5056268;28;1235;-58
2023/07/20 00:55:31;;;;;;;;;;;;;;;20.69;100.00;99170.56;5073944;28;830;-57
2023/07/20 00:57:59;;;;;;;;;;;;;;;20.76;100.00;99175.00;5074046;28;834;-57
2023/07/20 01:00:27;;;;;;;;;;;;;;;20.84;100.00;99178.97;5073901;28;862;-57
2023/07/20 01:02:54;;;;;;;;;;;;;;;20.94;100.00;99191.63;5073827;28;893;-57
2023/07/20 01:05:26;;;;;;;;;;;;;;;21.07;100.00;99213.75;5073807;28;807;-57
2023/07/20 01:08:04;;;;;;;;;;;;;;;21.20;100.00;99272.44;5073720;28;1910;-57
2023/07/20 01:10:48;;;;;;;;;;;;;;;21.34;100.00;99332.69;5073737;28;876;-57
2023/07/20 01:13:17;;;;;;;;;;;;;;;21.38;100.00;99320.00;5073665;28;869;-56
2023/07/20 01:16:05;;;;;;;;;;;;;;;21.34;100.00;99277.25;5073997;28;852;-57
2023/07/20 01:18:32;;;;;;;;;;;;;;;21.26;100.00;99286.59;5055462;28;1383;-57
2023/07/20 01:21:00;;;;;;;;;;;;;;;21.13;100.00;99290.47;5073546;28;874;-57
2023/07/20 01:23:43;;;;;;;;;;;;;;;21.04;100.00;99295.44;5073460;28;826;-57
2023/07/20 01:26:27;;;;;;;;;;;;;;;20.98;100.00;99293.31;5073574;28;873;-58
2023/07/20 01:29:13;;;;;;;;;;;;;;;21.04;100.00;99285.00;5073318;28;1885;-58
2023/07/20 01:31:41;;;;;;;;;;;;;;;21.09;100.00;99289.91;5073469;28;799;-57
2023/07/20 01:34:09;;;;;;;;;;;;;;;21.20;100.00;99300.53;5073483;28;854;-57
2023/07/20 01:36:37;;;;;;;;;;;;;;;21.23;100.00;99293.97;5073479;28;1345;-58
2023/07/20 01:39:06;;;;;;;;;;;;;;;21.22;100.00;99278.34;5073382;28;821;-58
2023/07/20 01:41:33;;;;;;;;;;;;;;;21.25;100.00;99285.03;5073308;28;795;-58
2023/07/20 01:43:59;;;;;;;;;;;;;;;21.25;100.00;99277.38;5073266;28;830;-59
2023/07/20 01:46:26;;;;;;;;;;;;;;;21.29;100.00;99269.50;5073280;28;929;-58
2023/07/20 01:48:54;;;;;;;;;;;;;;;21.38;100.00;99272.19;5072886;28;1886;-58
2023/07/20 01:51:21;;;;;;;;;;;;;;;21.49;100.00;99262.41;5072947;28;881;-58
2023/07/20 01:53:47;;;;;;;;;;;;;;;21.49;100.00;99260.34;5072895;28;857;-58
2023/07/20 01:56:15;;;;;;;;;;;;;;;21.48;100.00;99253.19;5072346;28;850;-58
2023/07/20 01:58:41;;;;;;;;;;;;;;;21.45;100.00;99253.41;5054825;28;1231;-59
2023/07/20 02:01:08;;;;;;;;;;;;;;;21.50;100.00;99253.47;5072840;28;877;-58
2023/07/20 02:03:35;;;;;;;;;;;;;;;21.55;100.00;99247.16;5072791;28;904;-58
2023/07/20 02:06:02;;;;;;;;;;;;;;;21.55;100.00;99232.31;5072830;28;858;-58
2023/07/20 02:08:28;;;;;;;;;;;;;;;21.58;100.00;99231.34;5072708;28;1985;-58
2023/07/20 02:10:55;;;;;;;;;;;;;;;21.62;100.00;99217.84;5072875;28;869;-58
2023/07/20 02:13:21;;;;;;;;;;;;;;;21.67;100.00;99216.34;5072653;28;771;-58
2023/07/20 02:15:49;;;;;;;;;;;;;;;21.70;100.00;99209.72;5072470;28;1252;-58
2023/07/20 02:18:16;;;;;;;;;;;;;;;21.65;100.00;99207.63;5072620;28;1267;-58
2023/07/20 02:20:43;;;;;;;;;;;;;;;21.55;100.00;99207.78;5072512;28;1124;-58
2023/07/20 02:23:11;;;;;;;;;;;;;;;21.58;100.00;99201.16;5072592;28;1189;-57
2023/07/20 02:25:39;;;;;;;;;;;;;;;21.64;100.00;99195.63;5072483;28;818;-57
2023/07/20 02:28:08;;;;;;;;;;;;;;;21.56;100.00;99192.44;5072251;28;1882;-58
2023/07/20 02:30:37;;;;;;;;;;;;;;;21.42;100.00;99187.69;5072019;28;815;-58
2023/07/20 02:33:05;;;;;;;;;;;;;;;21.37;100.00;99177.88;5072266;28;827;-58
2023/07/20 02:35:31;;;;;;;;;;;;;;;21.39;100.00;99163.34;5072181;28;869;-58
2023/07/20 02:37:58;;;;;;;;;;;;;;;21.49;100.00;99167.59;5072128;28;845;-58
2023/07/20 02:40:25;;;;;;;;;;;;;;;21.65;100.00;99148.59;5072072;28;841;-58
2023/07/20 02:42:52;;;;;;;;;;;;;;;21.65;100.00;99140.91;5072088;28;833;-57
2023/07/20 02:45:19;;;;;;;;;;;;;;;21.52;100.00;99135.66;5071883;28;894;-57
2023/07/20 02:47:46;;;;;;;;;;;;;;;21.35;100.00;99137.47;5072001;28;1943;-58
2023/07/20 02:50:14;;;;;;;;;;;;;;;21.29;100.00;99131.78;5072046;28;783;-57
2023/07/20 02:52:41;;;;;;;;;;;;;;;21.32;100.00;99119.56;5072114;28;857;-58
2023/07/20 02:55:09;;;;;;;;;;;;;;;21.30;100.00;99110.09;5072341;28;853;-57
2023/07/20 02:57:35;;;;;;;;;;;;;;;21.23;100.00;99102.88;5071810;28;925;-57
2023/07/20 03:00:04;;;;;;;;;;;;;;;21.21;100.00;99097.75;5071767;28;885;-57
2023/07/20 03:02:30;;;;;;;;;;;;;;;21.19;100.00;99074.22;5071818;28;842;-58
2023/07/20 03:05:05;;;;;;;;;;;;;;;21.25;100.00;99051.78;5071805;28;823;-58
2023/07/20 03:07:33;;;;;;;;;;;;;;;21.27;100.00;99035.19;5053312;28;1913;-57
2023/07/20 03:10:00;;;;;;;;;;;;;;;21.25;100.00;99006.81;5071808;28;889;-57
2023/07/20 03:12:27;;;;;;;;;;;;;;;21.30;100.00;98967.53;5071692;28;892;-58
2023/07/20 03:14:54;;;;;;;;;;;;;;;21.43;100.00;98957.97;5071664;28;842;-58
2023/07/20 03:17:20;;;;;;;;;;;;;;;21.71;100.00;98963.81;5071709;28;1003;-58
2023/07/20 03:19:47;;;;;;;;;;;;;;;22.11;100.00;98974.06;5053677;28;1232;-58
2023/07/20 03:22:14;;;;;;;;;;;;;;;22.29;100.00;98980.59;5071739;28;815;-57
2023/07/20 03:24:41;;;;;;;;;;;;;;;22.21;100.00;99008.38;5071568;28;853;-57
2023/07/20 03:27:08;;;;;;;;;;;;;;;22.14;100.00;99032.16;5071464;28;1983;-57
2023/07/20 03:29:35;;;;;;;;;;;;;;;22.07;100.00;99043.09;5071479;28;818;-58
2023/07/20 03:32:02;;;;;;;;;;;;;;;22.01;100.00;99035.38;5071582;28;830;-58
2023/07/20 03:34:29;;;;;;;;;;;;;;;22.01;100.00;99023.34;5071411;28;854;-58
2023/07/20 03:36:55;;;;;;;;;;;;;;;22.04;100.00;99036.44;5071490;28;834;-57
2023/07/20 03:39:22;;;;;;;;;;;;;;;22.04;100.00;99033.63;5071571;28;802;-57
2023/07/20 03:41:49;;;;;;;;;;;;;;;21.97;100.00;99028.44;5071460;28;783;-57
2023/07/20 03:44:16;;;;;;;;;;;;;;;21.96;100.00;99032.53;5071455;28;834;-58
2023/07/20 03:46:44;;;;;;;;;;;;;;;21.96;100.00;99043.78;5071596;28;897;-57
2023/07/20 03:49:11;;;;;;;;;;;;;;;21.98;100.00;99042.03;5071198;28;1885;-57
2023/07/20 03:51:38;;;;;;;;;;;;;;;22.05;100.00;99040.03;5071344;28;826;-58
2023/07/20 03:54:04;;;;;;;;;;;;;;;22.14;100.00;99056.72;5071376;28;860;-58
2023/07/20 03:56:35;;;;;;;;;;;;;;;22.25;100.00;99070.88;5071337;28;846;-57
2023/07/20 03:59:01;;;;;;;;;;;;;;;22.50;100.00;99080.53;5071160;28;866;-57
2023/07/20 04:01:28;;;;;;;;;;;;;;;22.76;100.00;99080.41;5071283;28;866;-57
2023/07/20 04:03:56;;;;;;;;;;;;;;;22.98;100.00;99091.03;5053238;28;886;-58
2023/07/20 04:06:22;;;;;;;;;;;;;;;23.16;100.00;99097.53;5071190;28;810;-58
2023/07/20 04:08:49;;;;;;;;;;;;;;;23.41;100.00;99105.03;5071049;28;1906;-57
2023/07/20 04:11:15;;;;;;;;;;;;;;;23.68;100.00;99105.59;5071157;28;811;-57
2023/07/20 04:13:41;;;;;;;;;;;;;;;23.99;99.96;99118.00;5071149;28;801;-57
2023/07/20 04:16:08;;;;;;;;;;;;;;;24.16;97.56;99120.84;5071147;28;826;-58
2023/07/20 04:18:34;;;;;;;;;;;;;;;24.23;96.34;99123.91;5072826;28;897;-58
2023/07/20 04:21:01;;;;;;;;;;;;;;;24.17;95.75;99123.13;5074641;28;873;-58
2023/07/20 04:23:28;;;;;;;;;;;;;;;24.05;96.26;99124.41;5074731;28;858;-58
2023/07/20 04:25:55;;;;;;;;;;;;;;;23.82;97.05;99115.94;5074592;28;853;-57
2023/07/20 04:28:22;;;;;;;;;;;;;;;23.57;98.25;99097.13;5074677;28;1942;-57
2023/07/20 04:30:50;;;;;;;;;;;;;;;23.34;99.68;99102.72;5074485;28;852;-57
2023/07/20 04:33:17;;;;;;;;;;;;;;;23.23;100.00;99094.97;5074447;28;818;-57
2023/07/20 04:35:51;;;;;;;;;;;;;;;23.22;100.00;99104.72;5074407;28;851;-57
2023/07/20 04:38:17;;;;;;;;;;;;;;;23.36;100.00;99105.78;5074635;28;881;-57
2023/07/20 04:40:48;;;;;;;;;;;;;;;23.63;100.00;99098.69;5074354;28;853;-57
2023/07/20 04:43:15;;;;;;;;;;;;;;;24.02;99.49;99106.44;5074357;28;993;-58
2023/07/20 04:45:42;;;;;;;;;;;;;;;24.42;97.47;99121.31;5074294;28;887;-57
2023/07/20 04:48:13;;;;;;;;;;;;;;;24.76;95.24;99112.06;5073972;28;1939;-57
2023/07/20 04:50:45;;;;;;;;;;;;;;;25.20;92.42;99110.38;5056134;28;850;-57
2023/07/20 04:53:12;;;;;;;;;;;;;;;25.60;89.07;99110.94;5074307;28;898;-57
2023/07/20 04:55:40;;;;;;;;;;;;;;;25.81;86.76;99112.09;5073986;28;865;-57
2023/07/20 04:58:07;;;;;;;;;;;;;;;25.87;85.07;99110.00;5073914;28;811;-57
2023/07/20 05:00:34;;;;;;;;;;;;;;;26.02;83.06;99120.22;5074026;28;806;-57
2023/07/20 05:03:09;;;;;;;;;;;;;;;26.18;81.35;99108.00;5073820;28;791;-57
2023/07/20 05:05:37;;;;;;;;;;;;;;;26.42;78.53;99104.44;5073892;28;840;-56
2023/07/20 05:08:04;;;;;;;;;;;;;;;26.64;76.11;99109.13;5073703;28;1906;-56
2023/07/20 05:10:32;;;;;;;;;;;;;;;26.84;74.07;99107.09;5073838;28;916;-57
2023/07/20 05:12:59;;;;;;;;;;;;;;;27.04;72.26;99103.03;5073709;28;870;-57
2023/07/20 05:15:26;;;;;;;;;;;;;;;27.40;68.76;99102.84;5073664;28;874;-57
2023/07/20 05:17:53;;;;;;;;;;;;;;;27.85;65.86;99113.56;5073672;28;866;-57
2023/07/20 05:20:20;;;;;;;;;;;;;;;27.97;64.78;99105.66;5073845;28;806;-58
2023/07/20 05:22:47;;;;;;;;;;;;;;;27.89;64.84;99109.13;5073525;28;868;-57
2023/07/20 05:25:13;;;;;;;;;;;;;;;27.84;62.06;99112.78;5073453;28;885;-57
2023/07/20 05:27:40;;;;;;;;;;;;;;;27.87;61.59;99117.41;5073290;28;1874;-57
2023/07/20 05:30:07;;;;;;;;;;;;;;;27.94;61.06;99115.25;5072262;28;833;-57
2023/07/20 05:32:34;;;;;;;;;;;;;;;28.06;61.50;99120.22;5073368;28;906;-57
2023/07/20 05:35:01;;;;;;;;;;;;;;;28.24;60.97;99118.63;5073246;28;886;-56
2023/07/20 05:37:27;;;;;;;;;;;;;;;28.40;60.58;99119.66;5073286;28;818;-56
2023/07/20 05:39:54;;;;;;;;;;;;;;;28.68;59.07;99122.03;5073199;28;813;-57
2023/07/20 05:42:21;;;;;;;;;;;;;;;28.98;57.28;99118.09;5073076;28;822;-57
2023/07/20 05:44:49;;;;;;;;;;;;;;;29.15;56.87;99112.09;5073141;28;925;-56
2023/07/20 05:47:16;;;;;;;;;;;;;;;29.09;55.93;99117.88;5073076;28;1886;-57
2023/07/20 05:49:44;;;;;;;;;;;;;;;29.19;56.72;99126.75;5073033;28;834;-56
2023/07/20 05:52:11;;;;;;;;;;;;;;;29.29;56.38;99127.06;5072865;28;881;-57
2023/07/20 05:54:37;;;;;;;;;;;;;;;29.39;55.75;99125.28;5072975;28;843;-57
2023/07/20 05:57:05;;;;;;;;;;;;;;;29.56;54.39;99127.00;5072668;28;873;-57
2023/07/20 05:59:31;;;;;;;;;;;;;;;29.75;52.44;99124.78;5072745;28;874;-57
2023/07/20 06:01:59;;;;;;;;;;;;;;;30.00;51.48;99125.25;5072849;28;855;-57
2023/07/20 06:04:26;;;;;;;;;;;;;;;29.71;50.35;99121.50;5072577;28;845;-57
2023/07/20 06:06:52;;;;;;;;;;;;;;;29.47;51.03;99117.59;5072752;28;834;-57
2023/07/20 06:09:18;;;;;;;;;;;;;;;29.83;49.99;99113.47;5072612;28;1918;-57
2023/07/20 06:11:46;;;;;;;;;;;;;;;30.60;47.75;99123.50;5072390;28;937;-57
2023/07/20 06:14:12;;;;;;;;;;;;;;;30.78;46.98;99123.81;5072398;28;926;-54
2023/07/20 06:16:39;;;;;;;;;;;;;;;31.40;44.52;99122.06;5072374;28;910;-57
2023/07/20 06:19:06;;;;;;;;;;;;;;;31.28;44.59;99124.47;5072522;28;885;-56
2023/07/20 06:21:33;;;;;;;;;;;;;;;31.11;45.55;99122.88;5072383;28;798;-56
2023/07/20 06:24:00;;;;;;;;;;;;;;;31.07;45.58;99133.91;5072571;28;811;-56
2023/07/20 06:26:28;;;;;;;;;;;;;;;31.61;44.87;99124.84;5072160;28;838;-56
2023/07/20 06:28:56;;;;;;;;;;;;;;;31.94;43.16;99123.78;5072300;28;1957;-56
2023/07/20 06:31:23;;;;;;;;;;;;;;;31.56;43.59;99126.53;5072217;28;931;-55
2023/07/20 06:33:50;;;;;;;;;;;;;;;32.13;42.86;99114.88;5072308;28;934;-56
2023/07/20 06:36:17;;;;;;;;;;;;;;;32.54;41.76;99123.69;5072112;28;814;-56
2023/07/20 06:38:44;;;;;;;;;;;;;;;32.84;41.17;99111.41;5072087;28;830;-56
2023/07/20 06:41:11;;;;;;;;;;;;;;;33.64;39.57;99115.00;5071731;28;846;-56
2023/07/20 06:43:38;;;;;;;;;;;;;;;34.44;37.87;99114.06;5072111;28;799;-56
2023/07/20 06:46:06;;;;;;;;;;;;;;;33.60;38.21;99117.50;5072106;28;979;-56
2023/07/20 06:48:33;;;;;;;;;;;;;;;32.93;39.82;99122.25;5071796;28;1955;-56
2023/07/20 06:51:00;;;;;;;;;;;;;;;34.45;36.66;99120.56;5054077;28;1242;-56
2023/07/20 06:53:27;;;;;;;;;;;;;;;36.22;33.64;99101.97;5071949;28;1036;-56
2023/07/20 06:55:54;;;;;;;;;;;;;;;37.62;31.24;99109.56;5071840;28;864;-55
2023/07/20 06:58:22;;;;;;;;;;;;;;;37.91;30.15;99113.09;5071889;28;841;-56
2023/07/20 07:00:49;;;;;;;;;;;;;;;37.91;30.13;99098.69;5071840;28;893;-56
2023/07/20 07:03:15;;;;;;;;;;;;;;;39.04;28.42;99100.66;5071876;28;872;-56
2023/07/20 07:05:41;;;;;;;;;;;;;;;38.83;28.57;99095.63;5071696;28;840;-57
2023/07/20 07:08:08;;;;;;;;;;;;;;;37.87;29.15;99095.50;5071745;28;1961;-57
2023/07/20 07:10:37;;;;;;;;;;;;;;;36.46;31.36;99097.34;5072000;28;818;-57
2023/07/20 07:13:04;;;;;;;;;;;;;;;36.36;31.77;99087.94;5071817;28;862;-56
2023/07/20 07:15:30;;;;;;;;;;;;;;;36.16;32.05;99096.50;5071339;28;928;-56
2023/07/20 07:17:59;;;;;;;;;;;;;;;37.31;30.63;99087.16;5071764;28;869;-57
2023/07/20 07:20:26;;;;;;;;;;;;;;;37.85;29.15;99094.63;5071586;28;924;-57
2023/07/20 07:22:52;;;;;;;;;;;;;;;38.44;28.38;99100.91;5071689;28;814;-57
2023/07/20 07:25:19;;;;;;;;;;;;;;;38.86;27.98;99103.06;5071606;28;842;-57
2023/07/20 07:27:46;;;;;;;;;;;;;;;39.17;27.23;99094.31;5071501;28;1886;-56
2023/07/20 07:30:13;;;;;;;;;;;;;;;39.32;27.04;99098.88;5071609;28;834;-57
2023/07/20 07:32:38;;;;;;;;;;;;;;;39.43;26.89;99097.44;5071579;28;838;-57
2023/07/20 07:35:06;;;;;;;;;;;;;;;39.45;26.35;99103.34;5071886;28;878;-57
2023/07/20 07:37:32;;;;;;;;;;;;;;;38.02;27.81;99087.88;5071391;28;811;-57
2023/07/20 07:39:59;;;;;;;;;;;;;;;36.90;29.10;99092.75;5071512;28;799;-57
2023/07/20 07:42:29;;;;;;;;;;;;;;;37.65;28.73;99103.34;5071565;28;822;-57
2023/07/20 07:44:55;;;;;;;;;;;;;;;37.33;29.31;99099.56;5071402;28;807;-58
2023/07/20 07:47:22;;;;;;;;;;;;;;;35.93;30.64;99101.84;5071444;28;1957;-57
2023/07/20 07:49:49;;;;;;;;;;;;;;;36.18;31.00;99095.91;5071423;28;873;-57
2023/07/20 07:52:15;;;;;;;;;;;;;;;37.08;30.27;99096.97;5071369;28;858;-57
2023/07/20 07:54:42;;;;;;;;;;;;;;;37.22;29.84;99090.81;5074902;28;803;-56
2023/07/20 07:57:08;;;;;;;;;;;;;;;37.66;29.22;99086.78;5075126;28;842;-57
2023/07/20 07:59:37;;;;;;;;;;;;;;;38.26;28.24;99089.63;5074986;28;854;-57
2023/07/20 08:02:04;;;;;;;;;;;;;;;38.65;28.09;99077.84;5075409;28;831;-57
2023/07/20 08:04:30;;;;;;;;;;;;;;;39.36;26.84;99075.28;5075039;28;838;-56
2023/07/20 08:06:57;;;;;;;;;;;;;;;40.00;26.65;99080.09;5074998;28;824;-57
2023/07/20 08:09:24;;;;;;;;;;;;;;;39.75;25.78;99086.44;5074983;28;1969;-57
2023/07/20 08:11:50;;;;;;;;;;;;;;;38.79;26.44;99078.03;5075181;28;825;-57
2023/07/20 08:14:17;;;;;;;;;;;;;;;39.01;26.39;99075.94;5074893;28;822;-57
2023/07/20 08:16:43;;;;;;;;;;;;;;;38.86;26.44;99076.31;5074745;28;811;-57
2023/07/20 08:22:13;;;;;;;;;;;;;;;38.79;26.80;99072.25;5073993;28;628;-56
2023/07/20 08:24:40;;;;;;;;;;;;;;;39.06;26.22;99074.06;5074529;28;826;-56
2023/07/20 08:27:08;;;;;;;;;;;;;;;39.22;26.35;99066.47;5074689;28;1894;-57
2023/07/20 08:29:35;;;;;;;;;;;;;;;38.71;26.17;99066.72;5074505;28;885;-55
2023/07/20 08:32:02;;;;;;;;;;;;;;;38.96;26.24;99065.47;5074578;28;818;-56
2023/07/20 08:34:29;;;;;;;;;;;;;;;39.23;26.04;99070.09;5074353;28;870;-56
2023/07/20 08:36:56;;;;;;;;;;;;;;;39.65;25.99;99072.13;5074429;28;846;-56
2023/07/20 08:39:24;;;;;;;;;;;;;;;39.64;25.59;99064.06;5074386;28;1193;-56
2023/07/20 08:41:53;;;;;;;;;;;;;;;39.41;25.83;99062.63;5074383;28;836;-56
2023/07/20 08:44:20;;;;;;;;;;;;;;;39.36;25.78;99058.69;5074734;28;822;-56
2023/07/20 08:46:47;;;;;;;;;;;;;;;39.14;25.62;99069.56;5074581;28;938;-57
2023/07/20 08:49:16;;;;;;;;;;;;;;;38.69;26.35;99063.69;5074091;28;1961;-56
2023/07/20 08:51:42;;;;;;;;;;;;;;;38.41;26.80;99068.28;5074201;28;866;-56
2023/07/20 08:54:10;;;;;;;;;;;;;;;38.39;26.62;99065.25;5074177;28;857;-57
2023/07/20 08:56:37;;;;;;;;;;;;;;;38.13;27.34;99064.94;5074068;28;889;-55
2023/07/20 08:59:04;;;;;;;;;;;;;;;37.95;27.11;99069.38;5074051;28;842;-56
2023/07/20 09:01:31;;;;;;;;;;;;;;;38.63;26.84;99059.66;5073919;28;811;-56
2023/07/20 09:03:58;;;;;;;;;;;;;;;39.34;25.67;99054.91;5073558;28;954;-57
2023/07/20 09:06:25;;;;;;;;;;;;;;;39.54;25.43;99041.81;5073832;28;846;-56
2023/07/20 09:08:52;;;;;;;;;;;;;;;38.65;26.02;99048.97;5073746;28;1905;-56
2023/07/20 09:11:19;;;;;;;;;;;;;;;38.54;26.75;99047.53;5073799;28;893;-56
2023/07/20 09:13:46;;;;;;;;;;;;;;;38.66;26.62;99043.97;5073815;28;890;-56
2023/07/20 09:48:29;;;;;;;;;;;;;;;39.44;25.47;99025.97;5058488;22;1926;-56
2023/07/20 09:50:57;;;;;;;;;;;;;;;39.28;25.52;99017.72;5033104;28;869;-56
2023/07/20 09:53:24;;;;;;;;;;;;;;;39.00;26.03;99020.28;5033158;28;1269;-57
2023/07/20 09:55:52;;;;;;;;;;;;;;;38.66;25.62;99017.97;5033548;28;798;-56
2023/07/20 09:58:19;;;;;;;;;;;;;;;38.60;25.76;99001.00;5033262;28;810;-56
2023/07/20 10:00:51;;;;;;;;;;;;;;;38.84;25.76;99006.91;5033446;28;884;-54
2023/07/20 10:03:20;;;;;;;;;;;;;;;38.43;26.04;99004.13;5033172;28;859;-56
2023/07/20 10:05:51;;;;;;;;;;;;;;;38.89;25.70;99006.53;5032943;28;850;-56
2023/07/20 10:08:19;;;;;;;;;;;;;;;39.15;25.04;98987.28;5032718;28;1910;-56
2023/07/20 10:10:47;;;;;;;;;;;;;;;39.36;25.11;98995.09;5032650;28;950;-56
2023/07/20 10:13:25;;;;;;;;;;;;;;;39.17;25.28;98998.22;5032697;28;802;-56
2023/07/20 10:15:59;;;;;;;;;;;;;;;38.83;24.85;99005.38;5032376;28;815;-56
2023/07/20 10:18:31;;;;;;;;;;;;;;;38.55;25.10;98991.31;5032612;28;922;-55
2023/07/20 10:21:00;;;;;;;;;;;;;;;38.51;24.93;98991.03;5032633;28;846;-56
2023/07/20 10:23:29;;;;;;;;;;;;;;;38.57;25.11;98979.16;5032528;28;806;-56
2023/07/20 10:25:56;;;;;;;;;;;;;;;38.11;25.38;98980.38;5032435;28;807;-57
2023/07/20 10:28:23;;;;;;;;;;;;;;;37.97;25.53;98977.25;5032368;28;1906;-56
2023/07/20 10:30:50;;;;;;;;;;;;;;;38.19;25.63;98978.03;5032419;28;889;-56
2023/07/20 10:33:19;;;;;;;;;;;;;;;38.57;25.52;98962.59;5032365;28;810;-56
2023/07/20 10:35:53;;;;;;;;;;;;;;;38.95;24.78;98972.28;5032591;28;1193;-56
2023/07/20 10:38:38;;;;;;;;;;;;;;;39.24;24.45;98962.53;5032317;28;842;-55
2023/07/20 10:41:17;;;;;;;;;;;;;;;39.84;23.95;98963.34;5032258;28;842;-55
2023/07/20 10:43:44;;;;;;;;;;;;;;;39.70;23.52;98971.91;5032211;28;818;-56
2023/07/20 10:46:14;;;;;;;;;;;;;;;39.48;23.74;98960.47;5032135;28;915;-51
2023/07/20 10:49:04;;;;;;;;;;;;;;;39.76;23.17;98960.72;5031959;28;1902;-55
2023/07/20 10:51:39;;;;;;;;;;;;;;;40.40;22.74;98945.78;5022260;28;2179;-58
2023/07/20 10:54:08;;;;;;;;;;;;;;;40.69;22.85;98941.63;5032092;28;830;-56
2023/07/20 10:56:35;;;;;;;;;;;;;;;40.10;23.57;98932.41;5031993;28;802;-56
2023/07/20 10:59:18;;;;;;;;;;;;;;;40.10;23.32;98923.72;5032026;28;819;-57
2023/07/20 11:01:47;;;;;;;;;;;;;;;39.78;23.56;98920.38;5014201;28;1236;-54
2023/07/20 11:04:14;;;;;;;;;;;;;;;40.05;23.50;98922.72;5031812;28;914;-54
2023/07/20 11:06:55;;;;;;;;;;;;;;;40.54;23.08;98911.13;5031875;28;835;-54
2023/07/20 11:09:25;;;;;;;;;;;;;;;41.06;22.84;98914.75;5031969;28;1889;-54
2023/07/20 11:12:09;;;;;;;;;;;;;;;41.54;22.33;98913.00;5031740;28;922;-56
2023/07/20 11:14:39;;;;;;;;;;;;;;;41.94;22.00;98915.81;5031814;28;1177;-56
2023/07/20 11:17:14;;;;;;;;;;;;;;;41.56;22.36;98915.28;5032008;28;877;-56
2023/07/20 11:19:41;;;;;;;;;;;;;;;41.03;22.65;98913.13;5031915;28;881;-56
2023/07/20 11:22:09;;;;;;;;;;;;;;;40.77;22.50;98903.72;5031802;28;858;-56
2023/07/20 11:24:39;;;;;;;;;;;;;;;41.04;22.12;98911.00;5031774;28;834;-56
2023/07/20 11:27:06;;;;;;;;;;;;;;;40.53;22.94;98894.41;5032794;28;835;-56
2023/07/20 11:29:32;;;;;;;;;;;;;;;40.06;23.40;98901.09;5035894;28;1949;-56
2023/07/20 11:32:00;;;;;;;;;;;;;;;40.11;23.45;98897.03;5035727;28;869;-57
2023/07/20 11:34:27;;;;;;;;;;;;;;;39.85;23.82;98895.47;5035692;28;799;-56
2023/07/20 11:36:54;;;;;;;;;;;;;;;39.33;24.42;98901.00;5035621;28;866;-56
2023/07/20 11:39:22;;;;;;;;;;;;;;;38.79;25.17;98899.78;5017894;28;1481;-56
2023/07/20 11:41:49;;;;;;;;;;;;;;;38.31;25.56;98900.22;5035390;28;989;-56
2023/07/20 11:44:27;;;;;;;;;;;;;;;38.45;25.67;98903.28;5035504;28;849;-56
2023/07/20 11:47:14;;;;;;;;;;;;;;;38.56;25.61;98897.59;5035215;28;1214;-56
2023/07/20 11:49:49;;;;;;;;;;;;;;;38.60;25.88;98897.84;5035477;28;920;-56
2023/07/20 11:52:16;;;;;;;;;;;;;;;38.62;25.90;98891.44;5035390;28;810;-56
2023/07/20 11:54:43;;;;;;;;;;;;;;;38.45;26.60;98889.59;5035334;28;862;-56
2023/07/20 11:57:17;;;;;;;;;;;;;;;38.75;26.43;98890.09;5035434;28;816;-56
2023/07/20 12:00:01;;;;;;;;;;;;;;;39.14;25.54;98878.88;5035200;28;818;-56
2023/07/20 12:02:28;;;;;;;;;;;;;;;39.17;25.77;98882.66;5035147;28;906;-57
2023/07/20 12:04:55;;;;;;;;;;;;;;;38.79;26.05;98879.56;5035022;28;865;-57
2023/07/20 12:07:22;;;;;;;;;;;;;;;38.38;26.90;98876.91;5035367;28;1886;-56
2023/07/20 12:10:07;;;;;;;;;;;;;;;38.92;26.77;98868.78;5034961;28;811;-56
2023/07/20 12:12:34;;;;;;;;;;;;;;;40.16;25.52;98855.41;5035093;28;831;-57
2023/07/20 12:15:33;;;;;;;;;;;;;;;41.00;24.59;98860.13;5034962;28;884;-58
2023/07/20 12:18:00;;;;;;;;;;;;;;;39.53;25.44;98851.63;4991687;28;1279;-57
2023/07/20 12:20:29;;;;;;;;;;;;;;;38.82;26.21;98847.94;5034912;28;913;-57
2023/07/20 12:23:07;;;;;;;;;;;;;;;38.50;26.70;98850.25;5034983;28;869;-57
2023/07/20 12:25:37;;;;;;;;;;;;;;;38.56;26.90;98848.50;5034778;28;914;-57
2023/07/20 12:28:07;;;;;;;;;;;;;;;40.77;25.08;98843.66;5034694;28;1886;-56
2023/07/20 12:30:33;;;;;;;;;;;;;;;41.26;24.12;98833.25;5034931;28;1332;-57
2023/07/20 12:33:00;;;;;;;;;;;;;;;40.34;24.97;98832.56;5034785;28;1197;-57
2023/07/20 12:35:27;;;;;;;;;;;;;;;39.69;25.68;98837.38;5034693;28;810;-57
2023/07/20 12:37:53;;;;;;;;;;;;;;;39.29;25.88;98831.41;5034813;28;823;-57
2023/07/20 12:40:20;;;;;;;;;;;;;;;39.44;25.88;98827.28;5033799;28;803;-57
2023/07/20 12:42:48;;;;;;;;;;;;;;;39.68;25.81;98838.78;5034430;28;795;-57
2023/07/20 12:45:14;;;;;;;;;;;;;;;40.50;24.98;98832.75;5034290;28;1218;-57
2023/07/20 12:47:43;;;;;;;;;;;;;;;40.77;24.22;98832.06;5034251;28;1971;-57
2023/07/20 12:50:10;;;;;;;;;;;;;;;40.30;24.58;98831.56;5034450;28;1302;-57
2023/07/20 12:52:38;;;;;;;;;;;;;;;40.09;24.90;98830.38;5034470;28;861;-57
2023/07/20 12:55:05;;;;;;;;;;;;;;;40.17;24.99;98836.63;5016601;28;1276;-58
2023/07/20 12:57:33;;;;;;;;;;;;;;;40.79;24.21;98835.09;5034229;28;935;-57
2023/07/20 12:59:59;;;;;;;;;;;;;;;41.12;23.33;98842.66;5034153;28;814;-57
2023/07/20 13:02:26;;;;;;;;;;;;;;;41.33;22.97;98832.16;5034173;28;795;-57
2023/07/20 13:04:53;;;;;;;;;;;;;;;40.87;22.91;98840.56;5034070;28;826;-57
2023/07/20 13:07:28;;;;;;;;;;;;;;;40.51;22.80;98837.13;5034135;28;1945;-57
2023/07/20 13:09:56;;;;;;;;;;;;;;;39.78;23.21;98830.72;5033959;28;840;-57
2023/07/20 13:12:22;;;;;;;;;;;;;;;40.61;22.38;98822.47;5033885;28;966;-57
2023/07/20 13:14:49;;;;;;;;;;;;;;;41.35;22.71;98832.25;5033825;28;841;-56
2023/07/20 13:17:15;;;;;;;;;;;;;;;41.87;23.91;98824.81;5034074;28;815;-57
2023/07/20 13:19:42;;;;;;;;;;;;;;;41.58;24.70;98822.63;5033733;28;814;-56
2023/07/20 13:22:08;;;;;;;;;;;;;;;41.37;25.00;98829.47;5033726;28;799;-57
2023/07/20 13:24:34;;;;;;;;;;;;;;;41.28;25.18;98830.44;5033724;28;854;-57
2023/07/20 13:27:01;;;;;;;;;;;;;;;40.04;26.79;98830.78;5033646;28;829;-57
2023/07/20 13:29:28;;;;;;;;;;;;;;;39.27;27.32;98824.75;5033528;28;1953;-57
2023/07/20 13:31:55;;;;;;;;;;;;;;;38.74;27.79;98822.94;5033539;28;807;-57
2023/07/20 13:34:21;;;;;;;;;;;;;;;38.57;27.80;98829.06;5033489;28;839;-57
2023/07/20 13:36:47;;;;;;;;;;;;;;;38.64;27.96;98825.16;5033406;28;886;-57
2023/07/20 13:39:14;;;;;;;;;;;;;;;39.11;28.25;98825.25;5033453;28;858;-56
2023/07/20 13:41:41;;;;;;;;;;;;;;;39.01;28.67;98824.63;5033287;28;838;-58
2023/07/20 13:44:08;;;;;;;;;;;;;;;39.46;28.74;98824.50;5033238;28;831;-57